sensor_id;sensor_type;location;lat;lon;timestamp;P1;durP1;ratioP1;P2;durP2;ratioP2
75297;SDS011;63896;45.990;18.688;2024-02-26T00:00:25;59.53;;;27.95;;
75297;SDS011;63896;45.990;18.688;2024-02-26T00:03:27;61.03;;;27.67;;
75297;SDS011;63896;45.990;18.688;2024-02-26T00:06:31;62.78;;;28.83;;
75297;SDS011;63896;45.990;18.688;2024-02-26T00:09:34;60.37;;;27.97;;
75297;SDS011;63896;45.990;18.688;2024-02-26T00:12:38;69.25;;;33.05;;
75297;SDS011;63896;45.990;18.688;2024-02-26T00:15:41;58.90;;;28.85;;
75297;SDS011;63896;45.990;18.688;2024-02-26T00:18:44;68.97;;;33.67;;
75297;SDS011;63896;45.990;18.688;2024-02-26T00:21:51;70.00;;;31.33;;
75297;SDS011;63896;45.990;18.688;2024-02-26T00:24:56;66.13;;;29.30;;
75297;SDS011;63896;45.990;18.688;2024-02-26T00:27:58;61.30;;;26.65;;
75297;SDS011;63896;45.990;18.688;2024-02-26T00:31:01;59.53;;;28.98;;
75297;SDS011;63896;45.990;18.688;2024-02-26T00:34:04;58.63;;;28.60;;
75297;SDS011;63896;45.990;18.688;2024-02-26T00:37:07;54.35;;;25.88;;
75297;SDS011;63896;45.990;18.688;2024-02-26T00:40:10;54.13;;;27.33;;
75297;SDS011;63896;45.990;18.688;2024-02-26T00:43:13;55.75;;;26.20;;
75297;SDS011;63896;45.990;18.688;2024-02-26T00:46:16;51.92;;;25.45;;
75297;SDS011;63896;45.990;18.688;2024-02-26T00:49:19;54.88;;;26.15;;
75297;SDS011;63896;45.990;18.688;2024-02-26T00:52:22;53.15;;;25.10;;
75297;SDS011;63896;45.990;18.688;2024-02-26T00:55:24;49.40;;;22.83;;
75297;SDS011;63896;45.990;18.688;2024-02-26T00:58:27;52.75;;;25.20;;
75297;SDS011;63896;45.990;18.688;2024-02-26T01:01:30;60.20;;;27.27;;
75297;SDS011;63896;45.990;18.688;2024-02-26T01:04:33;66.05;;;30.20;;
75297;SDS011;63896;45.990;18.688;2024-02-26T01:07:36;66.22;;;31.35;;
75297;SDS011;63896;45.990;18.688;2024-02-26T01:10:39;64.63;;;29.93;;
75297;SDS011;63896;45.990;18.688;2024-02-26T01:13:42;64.75;;;29.80;;
75297;SDS011;63896;45.990;18.688;2024-02-26T01:16:45;66.68;;;30.13;;
75297;SDS011;63896;45.990;18.688;2024-02-26T01:19:48;63.70;;;29.10;;
75297;SDS011;63896;45.990;18.688;2024-02-26T01:22:50;55.22;;;26.85;;
75297;SDS011;63896;45.990;18.688;2024-02-26T01:25:53;54.27;;;27.50;;
75297;SDS011;63896;45.990;18.688;2024-02-26T01:28:56;56.40;;;26.63;;
75297;SDS011;63896;45.990;18.688;2024-02-26T01:31:59;61.55;;;28.25;;
75297;SDS011;63896;45.990;18.688;2024-02-26T01:35:02;60.58;;;29.55;;
75297;SDS011;63896;45.990;18.688;2024-02-26T01:38:12;63.50;;;28.13;;
75297;SDS011;63896;45.990;18.688;2024-02-26T01:41:15;66.37;;;28.47;;
75297;SDS011;63896;45.990;18.688;2024-02-26T01:44:18;60.63;;;27.15;;
75297;SDS011;63896;45.990;18.688;2024-02-26T01:47:21;59.55;;;26.92;;
75297;SDS011;63896;45.990;18.688;2024-02-26T01:50:25;56.58;;;26.55;;
75297;SDS011;63896;45.990;18.688;2024-02-26T01:53:29;60.92;;;26.98;;
75297;SDS011;63896;45.990;18.688;2024-02-26T01:56:32;55.63;;;26.63;;
75297;SDS011;63896;45.990;18.688;2024-02-26T01:59:36;57.20;;;26.92;;
75297;SDS011;63896;45.990;18.688;2024-02-26T02:02:39;55.33;;;26.23;;
75297;SDS011;63896;45.990;18.688;2024-02-26T02:05:44;63.53;;;28.33;;
75297;SDS011;63896;45.990;18.688;2024-02-26T02:08:47;54.20;;;26.38;;
75297;SDS011;63896;45.990;18.688;2024-02-26T02:11:50;61.53;;;26.23;;
75297;SDS011;63896;45.990;18.688;2024-02-26T02:14:53;61.58;;;27.67;;
75297;SDS011;63896;45.990;18.688;2024-02-26T02:17:56;58.58;;;26.80;;
75297;SDS011;63896;45.990;18.688;2024-02-26T02:21:02;61.78;;;26.70;;
75297;SDS011;63896;45.990;18.688;2024-02-26T02:24:05;60.83;;;27.08;;
75297;SDS011;63896;45.990;18.688;2024-02-26T02:27:08;66.87;;;28.70;;
75297;SDS011;63896;45.990;18.688;2024-02-26T02:30:11;63.60;;;27.05;;
75297;SDS011;63896;45.990;18.688;2024-02-26T02:33:14;68.85;;;29.23;;
75297;SDS011;63896;45.990;18.688;2024-02-26T02:36:18;65.90;;;29.00;;
75297;SDS011;63896;45.990;18.688;2024-02-26T02:39:22;61.67;;;26.90;;
75297;SDS011;63896;45.990;18.688;2024-02-26T02:42:25;60.80;;;27.67;;
75297;SDS011;63896;45.990;18.688;2024-02-26T02:45:28;63.20;;;28.20;;
75297;SDS011;63896;45.990;18.688;2024-02-26T02:48:31;67.38;;;28.40;;
75297;SDS011;63896;45.990;18.688;2024-02-26T02:51:34;73.40;;;30.50;;
75297;SDS011;63896;45.990;18.688;2024-02-26T02:54:37;68.57;;;28.85;;
75297;SDS011;63896;45.990;18.688;2024-02-26T02:57:42;72.13;;;30.03;;
75297;SDS011;63896;45.990;18.688;2024-02-26T03:00:46;68.95;;;30.60;;
75297;SDS011;63896;45.990;18.688;2024-02-26T03:03:49;72.20;;;30.80;;
75297;SDS011;63896;45.990;18.688;2024-02-26T03:06:53;79.07;;;32.97;;
75297;SDS011;63896;45.990;18.688;2024-02-26T03:09:56;75.03;;;31.20;;
75297;SDS011;63896;45.990;18.688;2024-02-26T03:12:59;73.70;;;31.10;;
75297;SDS011;63896;45.990;18.688;2024-02-26T03:16:05;77.60;;;31.33;;
75297;SDS011;63896;45.990;18.688;2024-02-26T03:19:08;78.40;;;30.60;;
75297;SDS011;63896;45.990;18.688;2024-02-26T03:22:11;76.97;;;30.02;;
75297;SDS011;63896;45.990;18.688;2024-02-26T03:25:14;79.35;;;31.25;;
75297;SDS011;63896;45.990;18.688;2024-02-26T03:28:17;79.97;;;32.70;;
75297;SDS011;63896;45.990;18.688;2024-02-26T03:31:19;93.30;;;34.67;;
75297;SDS011;63896;45.990;18.688;2024-02-26T03:34:24;102.43;;;34.53;;
75297;SDS011;63896;45.990;18.688;2024-02-26T03:37:28;163.52;;;36.42;;
75297;SDS011;63896;45.990;18.688;2024-02-26T03:40:31;123.22;;;37.92;;
75297;SDS011;63896;45.990;18.688;2024-02-26T03:43:34;122.23;;;35.07;;
75297;SDS011;63896;45.990;18.688;2024-02-26T03:46:37;102.35;;;35.28;;
75297;SDS011;63896;45.990;18.688;2024-02-26T03:49:39;93.80;;;32.75;;
75297;SDS011;63896;45.990;18.688;2024-02-26T03:52:42;78.63;;;31.58;;
75297;SDS011;63896;45.990;18.688;2024-02-26T03:55:45;79.55;;;30.52;;
75297;SDS011;63896;45.990;18.688;2024-02-26T03:58:48;77.83;;;29.27;;
75297;SDS011;63896;45.990;18.688;2024-02-26T04:01:51;72.43;;;29.17;;
75297;SDS011;63896;45.990;18.688;2024-02-26T04:04:54;88.00;;;31.98;;
75297;SDS011;63896;45.990;18.688;2024-02-26T04:07:56;82.28;;;30.80;;
75297;SDS011;63896;45.990;18.688;2024-02-26T04:10:59;79.05;;;30.85;;
75297;SDS011;63896;45.990;18.688;2024-02-26T04:14:02;79.73;;;31.03;;
75297;SDS011;63896;45.990;18.688;2024-02-26T04:17:06;86.07;;;31.48;;
75297;SDS011;63896;45.990;18.688;2024-02-26T04:20:12;90.18;;;33.13;;
75297;SDS011;63896;45.990;18.688;2024-02-26T04:23:16;75.57;;;31.17;;
75297;SDS011;63896;45.990;18.688;2024-02-26T04:26:19;78.65;;;33.33;;
75297;SDS011;63896;45.990;18.688;2024-02-26T04:29:23;90.27;;;34.07;;
75297;SDS011;63896;45.990;18.688;2024-02-26T04:32:26;93.53;;;34.53;;
75297;SDS011;63896;45.990;18.688;2024-02-26T04:35:28;110.45;;;34.22;;
75297;SDS011;63896;45.990;18.688;2024-02-26T04:38:31;150.25;;;34.45;;
75297;SDS011;63896;45.990;18.688;2024-02-26T04:41:35;165.60;;;33.75;;
75297;SDS011;63896;45.990;18.688;2024-02-26T04:44:38;140.70;;;33.57;;
75297;SDS011;63896;45.990;18.688;2024-02-26T04:47:41;173.07;;;33.75;;
75297;SDS011;63896;45.990;18.688;2024-02-26T04:50:44;146.23;;;31.77;;
75297;SDS011;63896;45.990;18.688;2024-02-26T04:53:47;96.07;;;29.88;;
75297;SDS011;63896;45.990;18.688;2024-02-26T04:56:50;149.07;;;32.65;;
75297;SDS011;63896;45.990;18.688;2024-02-26T04:59:53;137.43;;;35.00;;
75297;SDS011;63896;45.990;18.688;2024-02-26T05:02:56;87.00;;;34.33;;
75297;SDS011;63896;45.990;18.688;2024-02-26T05:06:00;82.70;;;32.88;;
75297;SDS011;63896;45.990;18.688;2024-02-26T05:09:03;64.72;;;29.77;;
75297;SDS011;63896;45.990;18.688;2024-02-26T05:12:06;55.70;;;28.05;;
75297;SDS011;63896;45.990;18.688;2024-02-26T05:15:09;65.10;;;29.73;;
75297;SDS011;63896;45.990;18.688;2024-02-26T05:18:12;60.60;;;30.48;;
75297;SDS011;63896;45.990;18.688;2024-02-26T05:21:15;66.10;;;30.65;;
75297;SDS011;63896;45.990;18.688;2024-02-26T05:24:18;61.40;;;29.73;;
75297;SDS011;63896;45.990;18.688;2024-02-26T05:27:25;57.97;;;30.40;;
75297;SDS011;63896;45.990;18.688;2024-02-26T05:30:28;61.07;;;30.03;;
75297;SDS011;63896;45.990;18.688;2024-02-26T05:33:31;60.25;;;29.92;;
75297;SDS011;63896;45.990;18.688;2024-02-26T05:36:34;64.72;;;31.92;;
75297;SDS011;63896;45.990;18.688;2024-02-26T05:39:37;73.53;;;33.15;;
75297;SDS011;63896;45.990;18.688;2024-02-26T05:42:42;71.03;;;30.95;;
75297;SDS011;63896;45.990;18.688;2024-02-26T05:45:47;74.73;;;30.47;;
75297;SDS011;63896;45.990;18.688;2024-02-26T05:48:51;74.68;;;29.83;;
75297;SDS011;63896;45.990;18.688;2024-02-26T05:51:55;73.43;;;31.95;;
75297;SDS011;63896;45.990;18.688;2024-02-26T05:54:57;72.82;;;31.15;;
75297;SDS011;63896;45.990;18.688;2024-02-26T05:58:00;68.65;;;31.42;;
75297;SDS011;63896;45.990;18.688;2024-02-26T06:01:03;72.80;;;31.07;;
75297;SDS011;63896;45.990;18.688;2024-02-26T06:04:06;66.57;;;30.75;;
75297;SDS011;63896;45.990;18.688;2024-02-26T06:07:09;69.05;;;32.10;;
75297;SDS011;63896;45.990;18.688;2024-02-26T06:10:12;67.05;;;29.42;;
75297;SDS011;63896;45.990;18.688;2024-02-26T06:13:16;58.93;;;29.00;;
75297;SDS011;63896;45.990;18.688;2024-02-26T06:16:18;57.27;;;27.60;;
75297;SDS011;63896;45.990;18.688;2024-02-26T06:19:21;54.47;;;26.77;;
75297;SDS011;63896;45.990;18.688;2024-02-26T06:22:25;57.25;;;26.45;;
75297;SDS011;63896;45.990;18.688;2024-02-26T06:25:28;58.13;;;27.45;;
75297;SDS011;63896;45.990;18.688;2024-02-26T06:28:31;54.75;;;28.00;;
75297;SDS011;63896;45.990;18.688;2024-02-26T06:31:36;59.60;;;26.97;;
75297;SDS011;63896;45.990;18.688;2024-02-26T06:34:39;62.10;;;27.23;;
75297;SDS011;63896;45.990;18.688;2024-02-26T06:37:44;53.97;;;27.60;;
75297;SDS011;63896;45.990;18.688;2024-02-26T06:40:48;58.05;;;27.33;;
75297;SDS011;63896;45.990;18.688;2024-02-26T06:47:38;65.63;;;33.00;;
75297;SDS011;63896;45.990;18.688;2024-02-26T06:50:41;74.95;;;36.25;;
75297;SDS011;63896;45.990;18.688;2024-02-26T06:53:44;86.60;;;42.00;;
75297;SDS011;63896;45.990;18.688;2024-02-26T06:56:47;83.75;;;40.85;;
75297;SDS011;63896;45.990;18.688;2024-02-26T06:59:49;75.82;;;39.05;;
75297;SDS011;63896;45.990;18.688;2024-02-26T07:02:52;64.00;;;34.07;;
75297;SDS011;63896;45.990;18.688;2024-02-26T07:05:55;67.65;;;33.25;;
75297;SDS011;63896;45.990;18.688;2024-02-26T07:08:59;58.20;;;32.05;;
75297;SDS011;63896;45.990;18.688;2024-02-26T07:12:02;56.75;;;30.92;;
75297;SDS011;63896;45.990;18.688;2024-02-26T07:15:05;55.30;;;30.60;;
75297;SDS011;63896;45.990;18.688;2024-02-26T07:18:10;60.60;;;31.53;;
75297;SDS011;63896;45.990;18.688;2024-02-26T07:21:14;63.80;;;32.60;;
75297;SDS011;63896;45.990;18.688;2024-02-26T07:24:17;54.92;;;29.95;;
75297;SDS011;63896;45.990;18.688;2024-02-26T07:27:23;50.10;;;28.08;;
75297;SDS011;63896;45.990;18.688;2024-02-26T07:30:26;54.53;;;28.80;;
75297;SDS011;63896;45.990;18.688;2024-02-26T07:33:29;51.83;;;28.33;;
75297;SDS011;63896;45.990;18.688;2024-02-26T07:36:32;54.47;;;28.92;;
75297;SDS011;63896;45.990;18.688;2024-02-26T07:39:35;53.03;;;28.50;;
75297;SDS011;63896;45.990;18.688;2024-02-26T07:42:38;54.13;;;29.25;;
75297;SDS011;63896;45.990;18.688;2024-02-26T07:45:41;55.88;;;31.35;;
75297;SDS011;63896;45.990;18.688;2024-02-26T07:48:45;46.37;;;27.10;;
75297;SDS011;63896;45.990;18.688;2024-02-26T07:51:48;43.58;;;25.48;;
75297;SDS011;63896;45.990;18.688;2024-02-26T07:54:51;47.42;;;25.75;;
75297;SDS011;63896;45.990;18.688;2024-02-26T07:57:53;32.42;;;18.25;;
75297;SDS011;63896;45.990;18.688;2024-02-26T08:00:56;33.50;;;18.48;;
75297;SDS011;63896;45.990;18.688;2024-02-26T08:03:59;31.27;;;17.60;;
75297;SDS011;63896;45.990;18.688;2024-02-26T08:07:02;32.33;;;18.58;;
75297;SDS011;63896;45.990;18.688;2024-02-26T08:10:06;31.77;;;17.60;;
75297;SDS011;63896;45.990;18.688;2024-02-26T08:13:09;31.55;;;17.05;;
75297;SDS011;63896;45.990;18.688;2024-02-26T08:16:12;29.92;;;16.77;;
75297;SDS011;63896;45.990;18.688;2024-02-26T08:19:15;29.53;;;15.83;;
75297;SDS011;63896;45.990;18.688;2024-02-26T08:22:18;24.25;;;13.23;;
75297;SDS011;63896;45.990;18.688;2024-02-26T08:25:21;25.25;;;13.60;;
75297;SDS011;63896;45.990;18.688;2024-02-26T08:28:24;23.92;;;13.85;;
75297;SDS011;63896;45.990;18.688;2024-02-26T08:31:27;26.83;;;15.35;;
75297;SDS011;63896;45.990;18.688;2024-02-26T08:34:30;23.00;;;13.80;;
75297;SDS011;63896;45.990;18.688;2024-02-26T08:37:33;24.00;;;13.48;;
75297;SDS011;63896;45.990;18.688;2024-02-26T08:40:36;22.83;;;13.15;;
75297;SDS011;63896;45.990;18.688;2024-02-26T08:43:40;22.58;;;14.00;;
75297;SDS011;63896;45.990;18.688;2024-02-26T08:46:42;22.50;;;13.70;;
75297;SDS011;63896;45.990;18.688;2024-02-26T08:49:45;19.73;;;12.47;;
75297;SDS011;63896;45.990;18.688;2024-02-26T08:52:48;21.92;;;13.52;;
75297;SDS011;63896;45.990;18.688;2024-02-26T08:55:53;21.80;;;13.85;;
75297;SDS011;63896;45.990;18.688;2024-02-26T08:58:55;16.10;;;11.52;;
75297;SDS011;63896;45.990;18.688;2024-02-26T09:01:59;15.13;;;10.40;;
75297;SDS011;63896;45.990;18.688;2024-02-26T09:05:02;14.13;;;9.13;;
75297;SDS011;63896;45.990;18.688;2024-02-26T09:08:08;12.95;;;9.50;;
75297;SDS011;63896;45.990;18.688;2024-02-26T09:11:11;11.05;;;8.80;;
75297;SDS011;63896;45.990;18.688;2024-02-26T09:14:14;10.68;;;8.27;;
75297;SDS011;63896;45.990;18.688;2024-02-26T09:17:17;11.07;;;8.48;;
75297;SDS011;63896;45.990;18.688;2024-02-26T09:20:20;13.90;;;9.40;;
75297;SDS011;63896;45.990;18.688;2024-02-26T09:23:24;10.43;;;8.57;;
75297;SDS011;63896;45.990;18.688;2024-02-26T09:26:26;10.48;;;8.05;;
75297;SDS011;63896;45.990;18.688;2024-02-26T09:29:29;11.55;;;8.90;;
75297;SDS011;63896;45.990;18.688;2024-02-26T09:32:32;9.77;;;7.63;;
75297;SDS011;63896;45.990;18.688;2024-02-26T09:35:35;9.23;;;7.50;;
75297;SDS011;63896;45.990;18.688;2024-02-26T09:38:38;9.35;;;7.82;;
75297;SDS011;63896;45.990;18.688;2024-02-26T09:41:57;9.88;;;6.57;;
75297;SDS011;63896;45.990;18.688;2024-02-26T09:45:02;6.80;;;5.38;;
75297;SDS011;63896;45.990;18.688;2024-02-26T09:48:14;7.15;;;4.97;;
75297;SDS011;63896;45.990;18.688;2024-02-26T09:51:20;6.33;;;4.70;;
75297;SDS011;63896;45.990;18.688;2024-02-26T09:54:31;5.22;;;4.60;;
75297;SDS011;63896;45.990;18.688;2024-02-26T09:57:39;9.52;;;4.75;;
75297;SDS011;63896;45.990;18.688;2024-02-26T10:00:53;7.72;;;4.90;;
75297;SDS011;63896;45.990;18.688;2024-02-26T10:04:01;7.43;;;4.97;;
75297;SDS011;63896;45.990;18.688;2024-02-26T10:07:06;7.57;;;5.07;;
75297;SDS011;63896;45.990;18.688;2024-02-26T10:10:13;6.03;;;4.07;;
75297;SDS011;63896;45.990;18.688;2024-02-26T10:13:19;6.80;;;4.57;;
75297;SDS011;63896;45.990;18.688;2024-02-26T10:16:23;7.30;;;4.63;;
75297;SDS011;63896;45.990;18.688;2024-02-26T10:19:28;7.25;;;4.78;;
75297;SDS011;63896;45.990;18.688;2024-02-26T10:22:34;7.93;;;4.73;;
75297;SDS011;63896;45.990;18.688;2024-02-26T10:25:37;9.27;;;5.57;;
75297;SDS011;63896;45.990;18.688;2024-02-26T10:28:40;10.55;;;5.85;;
75297;SDS011;63896;45.990;18.688;2024-02-26T10:31:44;10.88;;;5.70;;
75297;SDS011;63896;45.990;18.688;2024-02-26T10:34:47;8.50;;;5.35;;
75297;SDS011;63896;45.990;18.688;2024-02-26T10:37:50;8.17;;;5.23;;
75297;SDS011;63896;45.990;18.688;2024-02-26T10:40:54;9.63;;;5.68;;
75297;SDS011;63896;45.990;18.688;2024-02-26T10:43:56;9.20;;;6.25;;
75297;SDS011;63896;45.990;18.688;2024-02-26T10:46:59;10.07;;;6.22;;
75297;SDS011;63896;45.990;18.688;2024-02-26T10:50:02;7.93;;;6.07;;
75297;SDS011;63896;45.990;18.688;2024-02-26T10:53:21;10.57;;;6.33;;
75297;SDS011;63896;45.990;18.688;2024-02-26T10:56:26;9.70;;;6.50;;
75297;SDS011;63896;45.990;18.688;2024-02-26T10:59:34;8.27;;;6.68;;
75297;SDS011;63896;45.990;18.688;2024-02-26T11:02:40;17.67;;;6.60;;
75297;SDS011;63896;45.990;18.688;2024-02-26T11:05:44;9.18;;;6.22;;
75297;SDS011;63896;45.990;18.688;2024-02-26T11:08:48;9.23;;;7.13;;
75297;SDS011;63896;45.990;18.688;2024-02-26T11:11:52;12.38;;;7.03;;
75297;SDS011;63896;45.990;18.688;2024-02-26T11:14:57;8.23;;;6.28;;
75297;SDS011;63896;45.990;18.688;2024-02-26T11:18:01;9.32;;;6.47;;
75297;SDS011;63896;45.990;18.688;2024-02-26T11:21:04;9.10;;;6.63;;
75297;SDS011;63896;45.990;18.688;2024-02-26T11:24:11;11.67;;;7.27;;
75297;SDS011;63896;45.990;18.688;2024-02-26T11:27:17;8.55;;;6.45;;
75297;SDS011;63896;45.990;18.688;2024-02-26T11:30:21;8.40;;;6.65;;
75297;SDS011;63896;45.990;18.688;2024-02-26T11:33:25;8.48;;;6.10;;
75297;SDS011;63896;45.990;18.688;2024-02-26T11:36:28;8.32;;;6.20;;
75297;SDS011;63896;45.990;18.688;2024-02-26T11:39:32;10.97;;;6.27;;
75297;SDS011;63896;45.990;18.688;2024-02-26T11:42:43;9.32;;;6.57;;
75297;SDS011;63896;45.990;18.688;2024-02-26T11:45:48;13.93;;;6.30;;
75297;SDS011;63896;45.990;18.688;2024-02-26T11:48:55;8.52;;;6.47;;
75297;SDS011;63896;45.990;18.688;2024-02-26T11:52:07;7.22;;;6.00;;
75297;SDS011;63896;45.990;18.688;2024-02-26T11:55:11;8.90;;;6.27;;
75297;SDS011;63896;45.990;18.688;2024-02-26T11:58:14;10.52;;;5.93;;
75297;SDS011;63896;45.990;18.688;2024-02-26T12:04:44;11.38;;;5.00;;
75297;SDS011;63896;45.990;18.688;2024-02-26T12:07:48;16.80;;;6.30;;
75297;SDS011;63896;45.990;18.688;2024-02-26T12:10:53;8.23;;;5.60;;
75297;SDS011;63896;45.990;18.688;2024-02-26T12:13:58;12.23;;;5.40;;
75297;SDS011;63896;45.990;18.688;2024-02-26T12:17:00;7.43;;;5.15;;
75297;SDS011;63896;45.990;18.688;2024-02-26T12:20:10;6.72;;;4.97;;
75297;SDS011;63896;45.990;18.688;2024-02-26T12:23:14;5.55;;;4.70;;
75297;SDS011;63896;45.990;18.688;2024-02-26T12:26:19;7.50;;;4.83;;
75297;SDS011;63896;45.990;18.688;2024-02-26T12:29:22;6.18;;;4.68;;
75297;SDS011;63896;45.990;18.688;2024-02-26T12:32:25;10.50;;;5.05;;
75297;SDS011;63896;45.990;18.688;2024-02-26T12:35:28;10.15;;;5.45;;
75297;SDS011;63896;45.990;18.688;2024-02-26T12:38:38;6.57;;;4.25;;
75297;SDS011;63896;45.990;18.688;2024-02-26T12:41:45;8.30;;;4.47;;
75297;SDS011;63896;45.990;18.688;2024-02-26T12:44:52;6.88;;;4.43;;
75297;SDS011;63896;45.990;18.688;2024-02-26T12:47:55;5.57;;;4.38;;
75297;SDS011;63896;45.990;18.688;2024-02-26T12:50:59;5.53;;;4.15;;
75297;SDS011;63896;45.990;18.688;2024-02-26T12:54:04;5.45;;;3.75;;
75297;SDS011;63896;45.990;18.688;2024-02-26T12:57:08;5.60;;;4.57;;
75297;SDS011;63896;45.990;18.688;2024-02-26T13:00:12;7.18;;;4.40;;
75297;SDS011;63896;45.990;18.688;2024-02-26T13:03:18;8.68;;;4.95;;
75297;SDS011;63896;45.990;18.688;2024-02-26T13:06:22;9.70;;;4.70;;
75297;SDS011;63896;45.990;18.688;2024-02-26T13:09:26;4.88;;;3.20;;
75297;SDS011;63896;45.990;18.688;2024-02-26T13:12:29;5.90;;;3.60;;
75297;SDS011;63896;45.990;18.688;2024-02-26T13:15:36;6.00;;;4.22;;
75297;SDS011;63896;45.990;18.688;2024-02-26T13:18:39;4.53;;;3.65;;
75297;SDS011;63896;45.990;18.688;2024-02-26T13:21:43;5.65;;;3.22;;
75297;SDS011;63896;45.990;18.688;2024-02-26T13:24:52;4.50;;;3.47;;
75297;SDS011;63896;45.990;18.688;2024-02-26T13:28:09;6.70;;;3.80;;
75297;SDS011;63896;45.990;18.688;2024-02-26T13:31:16;4.75;;;3.17;;
75297;SDS011;63896;45.990;18.688;2024-02-26T13:34:23;4.75;;;3.10;;
75297;SDS011;63896;45.990;18.688;2024-02-26T13:37:29;4.78;;;2.97;;
75297;SDS011;63896;45.990;18.688;2024-02-26T13:40:32;5.07;;;3.55;;
75297;SDS011;63896;45.990;18.688;2024-02-26T13:43:36;4.47;;;3.20;;
75297;SDS011;63896;45.990;18.688;2024-02-26T13:46:39;4.70;;;3.13;;
75297;SDS011;63896;45.990;18.688;2024-02-26T13:49:42;6.22;;;4.10;;
75297;SDS011;63896;45.990;18.688;2024-02-26T13:52:45;7.43;;;4.10;;
75297;SDS011;63896;45.990;18.688;2024-02-26T13:55:48;10.68;;;4.28;;
75297;SDS011;63896;45.990;18.688;2024-02-26T13:58:51;7.83;;;4.77;;
75297;SDS011;63896;45.990;18.688;2024-02-26T14:01:55;4.68;;;3.83;;
75297;SDS011;63896;45.990;18.688;2024-02-26T14:04:57;5.75;;;3.55;;
75297;SDS011;63896;45.990;18.688;2024-02-26T14:08:00;6.18;;;3.30;;
75297;SDS011;63896;45.990;18.688;2024-02-26T14:11:06;5.18;;;3.80;;
75297;SDS011;63896;45.990;18.688;2024-02-26T14:14:09;7.53;;;3.50;;
75297;SDS011;63896;45.990;18.688;2024-02-26T14:17:15;9.13;;;3.63;;
75297;SDS011;63896;45.990;18.688;2024-02-26T14:20:18;6.47;;;3.92;;
75297;SDS011;63896;45.990;18.688;2024-02-26T14:23:21;8.38;;;3.92;;
75297;SDS011;63896;45.990;18.688;2024-02-26T14:26:24;5.90;;;3.75;;
75297;SDS011;63896;45.990;18.688;2024-02-26T14:29:27;5.77;;;3.90;;
75297;SDS011;63896;45.990;18.688;2024-02-26T14:32:30;9.32;;;5.72;;
75297;SDS011;63896;45.990;18.688;2024-02-26T14:35:37;13.95;;;5.40;;
75297;SDS011;63896;45.990;18.688;2024-02-26T14:38:40;19.00;;;8.98;;
75297;SDS011;63896;45.990;18.688;2024-02-26T14:41:42;14.38;;;9.23;;
75297;SDS011;63896;45.990;18.688;2024-02-26T14:44:45;9.60;;;6.90;;
75297;SDS011;63896;45.990;18.688;2024-02-26T14:47:50;8.30;;;6.18;;
75297;SDS011;63896;45.990;18.688;2024-02-26T14:50:53;14.18;;;7.78;;
75297;SDS011;63896;45.990;18.688;2024-02-26T14:53:56;10.70;;;6.90;;
75297;SDS011;63896;45.990;18.688;2024-02-26T14:57:01;8.50;;;5.22;;
75297;SDS011;63896;45.990;18.688;2024-02-26T15:00:04;7.90;;;4.90;;
75297;SDS011;63896;45.990;18.688;2024-02-26T15:03:08;8.52;;;5.85;;
75297;SDS011;63896;45.990;18.688;2024-02-26T15:06:11;8.93;;;5.20;;
75297;SDS011;63896;45.990;18.688;2024-02-26T15:09:14;12.88;;;6.00;;
75297;SDS011;63896;45.990;18.688;2024-02-26T15:12:17;10.63;;;6.35;;
75297;SDS011;63896;45.990;18.688;2024-02-26T15:15:25;14.13;;;8.00;;
75297;SDS011;63896;45.990;18.688;2024-02-26T15:18:29;11.43;;;5.47;;
75297;SDS011;63896;45.990;18.688;2024-02-26T15:21:33;10.20;;;5.75;;
75297;SDS011;63896;45.990;18.688;2024-02-26T15:24:36;10.18;;;6.50;;
75297;SDS011;63896;45.990;18.688;2024-02-26T15:27:39;16.65;;;8.65;;
75297;SDS011;63896;45.990;18.688;2024-02-26T15:30:42;21.00;;;9.70;;
75297;SDS011;63896;45.990;18.688;2024-02-26T15:33:45;18.17;;;9.40;;
75297;SDS011;63896;45.990;18.688;2024-02-26T15:36:48;20.83;;;11.07;;
75297;SDS011;63896;45.990;18.688;2024-02-26T15:39:51;25.20;;;13.80;;
75297;SDS011;63896;45.990;18.688;2024-02-26T15:42:54;18.00;;;10.70;;
75297;SDS011;63896;45.990;18.688;2024-02-26T15:45:57;14.10;;;8.50;;
75297;SDS011;63896;45.990;18.688;2024-02-26T15:49:00;18.38;;;11.10;;
75297;SDS011;63896;45.990;18.688;2024-02-26T15:52:03;23.02;;;12.15;;
75297;SDS011;63896;45.990;18.688;2024-02-26T15:55:06;28.20;;;13.57;;
75297;SDS011;63896;45.990;18.688;2024-02-26T15:58:11;23.40;;;13.00;;
75297;SDS011;63896;45.990;18.688;2024-02-26T16:01:14;25.93;;;13.77;;
75297;SDS011;63896;45.990;18.688;2024-02-26T16:04:26;28.70;;;15.27;;
75297;SDS011;63896;45.990;18.688;2024-02-26T16:07:31;23.42;;;13.63;;
75297;SDS011;63896;45.990;18.688;2024-02-26T16:10:40;14.48;;;9.25;;
75297;SDS011;63896;45.990;18.688;2024-02-26T16:13:43;18.45;;;9.35;;
75297;SDS011;63896;45.990;18.688;2024-02-26T16:16:50;24.93;;;13.27;;
75297;SDS011;63896;45.990;18.688;2024-02-26T16:19:57;36.03;;;19.30;;
75297;SDS011;63896;45.990;18.688;2024-02-26T16:23:02;38.47;;;19.08;;
75297;SDS011;63896;45.990;18.688;2024-02-26T16:26:08;67.78;;;31.85;;
75297;SDS011;63896;45.990;18.688;2024-02-26T16:29:11;67.90;;;31.60;;
75297;SDS011;63896;45.990;18.688;2024-02-26T16:32:13;57.60;;;27.20;;
75297;SDS011;63896;45.990;18.688;2024-02-26T16:35:16;18.30;;;10.50;;
75297;SDS011;63896;45.990;18.688;2024-02-26T16:38:19;10.45;;;6.88;;
75297;SDS011;63896;45.990;18.688;2024-02-26T16:41:22;20.85;;;11.98;;
75297;SDS011;63896;45.990;18.688;2024-02-26T16:44:25;12.95;;;8.20;;
75297;SDS011;63896;45.990;18.688;2024-02-26T16:47:28;15.50;;;8.70;;
75297;SDS011;63896;45.990;18.688;2024-02-26T16:50:31;15.02;;;7.40;;
75297;SDS011;63896;45.990;18.688;2024-02-26T16:53:33;17.20;;;9.00;;
75297;SDS011;63896;45.990;18.688;2024-02-26T16:56:36;13.55;;;7.72;;
75297;SDS011;63896;45.990;18.688;2024-02-26T16:59:40;20.25;;;9.07;;
75297;SDS011;63896;45.990;18.688;2024-02-26T17:02:43;15.27;;;8.83;;
75297;SDS011;63896;45.990;18.688;2024-02-26T17:05:47;19.58;;;9.77;;
75297;SDS011;63896;45.990;18.688;2024-02-26T17:08:50;18.45;;;10.25;;
75297;SDS011;63896;45.990;18.688;2024-02-26T17:11:55;21.55;;;11.07;;
75297;SDS011;63896;45.990;18.688;2024-02-26T17:14:58;19.35;;;11.00;;
75297;SDS011;63896;45.990;18.688;2024-02-26T17:18:01;61.97;;;22.23;;
75297;SDS011;63896;45.990;18.688;2024-02-26T17:21:04;45.25;;;18.50;;
75297;SDS011;63896;45.990;18.688;2024-02-26T17:24:07;38.13;;;18.70;;
75297;SDS011;63896;45.990;18.688;2024-02-26T17:27:10;50.03;;;27.80;;
75297;SDS011;63896;45.990;18.688;2024-02-26T17:30:13;56.85;;;30.45;;
75297;SDS011;63896;45.990;18.688;2024-02-26T17:33:16;41.10;;;22.33;;
75297;SDS011;63896;45.990;18.688;2024-02-26T17:36:19;28.48;;;14.93;;
75297;SDS011;63896;45.990;18.688;2024-02-26T17:39:22;24.48;;;12.88;;
75297;SDS011;63896;45.990;18.688;2024-02-26T17:42:25;23.77;;;12.32;;
75297;SDS011;63896;45.990;18.688;2024-02-26T17:45:29;26.80;;;12.65;;
75297;SDS011;63896;45.990;18.688;2024-02-26T17:48:32;22.10;;;11.60;;
75297;SDS011;63896;45.990;18.688;2024-02-26T17:51:35;19.70;;;10.35;;
75297;SDS011;63896;45.990;18.688;2024-02-26T17:54:38;21.48;;;10.65;;